createdAt,value
2022-12-19T00:00:07.647Z,-4.87
2022-12-19T00:02:39.499Z,-4.94
2022-12-19T00:05:06.967Z,-4.86
2022-12-19T00:07:33.839Z,-4.77
2022-12-19T00:10:00.614Z,-4.94
2022-12-19T00:12:27.499Z,-4.77
2022-12-19T00:14:54.400Z,-4.76
2022-12-19T00:17:21.937Z,-4.83
2022-12-19T00:19:48.843Z,-4.72
2022-12-19T00:22:15.526Z,-4.77
2022-12-19T00:24:42.238Z,-4.68
2022-12-19T00:27:08.915Z,-4.68
2022-12-19T00:29:35.709Z,-4.76
2022-12-19T00:32:03.426Z,-4.79
2022-12-19T00:34:30.221Z,-4.72
2022-12-19T00:36:56.929Z,-4.73
2022-12-19T00:39:23.687Z,-4.85
2022-12-19T00:41:50.388Z,-4.75
2022-12-19T00:44:17.177Z,-4.73
2022-12-19T00:46:50.262Z,-4.66
2022-12-19T00:49:19.801Z,-4.68
2022-12-19T00:51:46.927Z,-4.69
2022-12-19T00:54:13.754Z,-4.73
2022-12-19T00:56:41.788Z,-4.55
2022-12-19T00:59:10.744Z,-4.48
2022-12-19T01:01:41.621Z,-4.43
2022-12-19T01:04:30.740Z,-4.40
2022-12-19T01:07:02.375Z,-4.46
2022-12-19T01:09:35.166Z,-4.37
2022-12-19T01:12:23.129Z,-4.33
2022-12-19T01:14:54.325Z,-4.35
2022-12-19T01:17:23.926Z,-4.35
2022-12-19T01:19:52.882Z,-4.36
2022-12-19T01:22:19.595Z,-4.32
2022-12-19T01:24:46.312Z,-4.33
2022-12-19T01:27:15.307Z,-4.27
2022-12-19T01:29:49.093Z,-4.33
2022-12-19T01:32:20.429Z,-4.22
2022-12-19T01:34:47.135Z,-4.21
2022-12-19T01:37:14.027Z,-4.29
2022-12-19T01:39:44.876Z,-4.27
2022-12-19T01:42:22.346Z,-4.17
2022-12-19T01:45:05.652Z,-4.13
2022-12-19T01:47:36.281Z,-4.22
2022-12-19T01:50:03.852Z,-4.08
2022-12-19T01:52:30.633Z,-4.18
2022-12-19T01:55:01.339Z,-4.03
2022-12-19T01:57:28.016Z,-3.99
2022-12-19T01:59:59.377Z,-4.07
2022-12-19T02:02:33.293Z,-3.95
2022-12-19T02:05:01.745Z,-4.03
2022-12-19T02:07:28.573Z,-3.95
2022-12-19T02:09:56.977Z,-3.92
2022-12-19T02:12:32.998Z,-3.92
2022-12-19T02:15:03.042Z,-3.88
2022-12-19T02:17:57.835Z,-3.93
2022-12-19T02:20:25.109Z,-3.87
2022-12-19T02:23:00.970Z,-3.80
2022-12-19T02:25:52.009Z,-3.80
2022-12-19T02:28:45.728Z,-3.80
2022-12-19T02:31:25.865Z,-3.92
2022-12-19T02:34:03.322Z,-3.83
2022-12-19T02:36:43.592Z,-3.90
2022-12-19T02:39:20.723Z,-3.84
2022-12-19T02:41:53.378Z,-3.98
2022-12-19T02:44:26.748Z,-3.79
2022-12-19T02:46:54.773Z,-3.80
2022-12-19T02:49:30.679Z,-3.80
2022-12-19T02:52:08.345Z,-3.79
2022-12-19T02:54:35.103Z,-3.90
2022-12-19T02:57:16.249Z,-3.90
2022-12-19T03:00:03.060Z,-3.94
2022-12-19T03:03:01.183Z,-3.83
2022-12-19T03:05:40.410Z,-3.85
2022-12-19T03:08:19.252Z,-3.84
2022-12-19T03:10:55.464Z,-3.85
2022-12-19T03:13:30.369Z,-3.87
2022-12-19T03:15:58.896Z,-4.01
2022-12-19T03:18:26.500Z,-3.93
2022-12-19T03:21:07.005Z,-4.03
2022-12-19T03:23:34.141Z,-3.91
2022-12-19T03:26:18.625Z,-3.91
2022-12-19T03:28:54.214Z,-3.99
2022-12-19T03:31:24.870Z,-3.99
2022-12-19T03:33:56.857Z,-3.96
2022-12-19T03:36:32.950Z,-3.93
2022-12-19T03:39:04.268Z,-3.96
2022-12-19T03:41:49.938Z,-3.90
2022-12-19T03:44:19.245Z,-3.82
2022-12-19T03:46:51.903Z,-3.81
2022-12-19T03:49:18.721Z,-3.98
2022-12-19T03:52:03.475Z,-3.92
2022-12-19T03:54:44.501Z,-3.86
2022-12-19T03:57:30.758Z,-3.88
2022-12-19T04:00:06.295Z,-3.87
2022-12-19T04:02:42.723Z,-3.96
2022-12-19T04:05:13.049Z,-4.00
2022-12-19T04:07:41.216Z,-4.01
2022-12-19T04:10:12.024Z,-3.99
2022-12-19T04:12:42.977Z,-3.95
2022-12-19T04:15:10.250Z,-3.96
2022-12-19T04:17:45.006Z,-3.95
2022-12-19T04:20:15.628Z,-4.13
2022-12-19T04:22:49.806Z,-4.14
2022-12-19T04:25:20.098Z,-4.31
2022-12-19T04:27:52.280Z,-4.07
2022-12-19T04:30:19.800Z,-4.11
2022-12-19T04:32:47.822Z,-4.11
2022-12-19T04:35:14.873Z,-4.03
2022-12-19T04:37:42.053Z,-4.07
2022-12-19T04:40:11.022Z,-4.01
2022-12-19T04:42:37.777Z,-3.93
2022-12-19T04:45:06.017Z,-4.03
2022-12-19T04:47:32.914Z,-4.03
2022-12-19T04:49:59.675Z,-3.98
2022-12-19T04:52:26.578Z,-3.98
2022-12-19T04:54:53.218Z,-3.97
2022-12-19T04:57:19.963Z,-3.99
2022-12-19T04:59:46.700Z,-3.90
2022-12-19T05:02:13.545Z,-3.92
2022-12-19T05:04:40.286Z,-4.01
2022-12-19T05:07:07.015Z,-3.79
2022-12-19T05:09:34.140Z,-3.78
2022-12-19T05:12:00.867Z,-3.81
2022-12-19T05:14:27.850Z,-3.78
2022-12-19T05:17:00.367Z,-3.77
2022-12-19T05:19:28.145Z,-3.78
2022-12-19T05:21:54.975Z,-3.76
2022-12-19T05:24:22.184Z,-3.70
2022-12-19T05:26:49.772Z,-3.70
2022-12-19T05:29:17.304Z,-3.96
2022-12-19T05:31:44.291Z,-3.67
2022-12-19T05:34:11.190Z,-3.77
2022-12-19T05:36:38.043Z,-3.61
2022-12-19T05:39:04.819Z,-3.60
2022-12-19T05:41:31.544Z,-3.57
2022-12-19T05:43:58.258Z,-3.51
2022-12-19T05:46:25.654Z,-3.47
2022-12-19T05:49:11.105Z,-3.52
2022-12-19T05:51:57.043Z,-3.47
2022-12-19T05:54:24.497Z,-3.52
2022-12-19T05:56:51.167Z,-3.49
2022-12-19T05:59:17.976Z,-3.43
2022-12-19T06:01:44.833Z,-3.39
2022-12-19T06:04:11.584Z,-3.37
2022-12-19T06:06:38.276Z,-3.44
2022-12-19T06:09:05.079Z,-3.45
2022-12-19T06:11:31.783Z,-3.32
2022-12-19T06:13:58.548Z,-3.50
2022-12-19T06:16:26.396Z,-3.38
2022-12-19T06:18:53.155Z,-3.26
2022-12-19T06:21:21.902Z,-3.39
2022-12-19T06:23:49.153Z,-3.22
2022-12-19T06:26:20.300Z,-3.20
2022-12-19T06:28:52.201Z,-3.16
2022-12-19T06:31:20.926Z,-3.28
2022-12-19T06:33:48.019Z,-3.13
2022-12-19T06:36:19.343Z,-3.25
2022-12-19T06:38:46.551Z,-3.13
2022-12-19T06:41:32.650Z,-3.14
2022-12-19T06:44:00.628Z,-3.15
2022-12-19T06:46:27.674Z,-3.13
2022-12-19T06:48:54.668Z,-3.10
2022-12-19T06:51:21.739Z,-3.08
2022-12-19T06:53:48.830Z,-3.10
2022-12-19T06:56:16.507Z,-3.08
2022-12-19T06:58:43.285Z,-3.13
2022-12-19T07:01:45.490Z,-2.99
2022-12-19T07:04:16.541Z,-3.01
2022-12-19T07:06:48.723Z,-2.99
2022-12-19T07:09:15.930Z,-3.00
2022-12-19T07:11:42.595Z,-2.98
2022-12-19T07:14:09.352Z,-2.88
2022-12-19T07:16:37.955Z,-2.92
2022-12-19T07:19:06.075Z,-2.83
2022-12-19T07:21:36.083Z,-2.81
2022-12-19T07:24:03.911Z,-2.89
2022-12-19T07:26:30.795Z,-2.96
2022-12-19T07:28:58.929Z,-2.79
2022-12-19T07:31:25.696Z,-2.68
2022-12-19T07:33:52.412Z,-2.66
2022-12-19T07:36:19.090Z,-2.73
2022-12-19T07:38:45.851Z,-2.65
2022-12-19T07:41:12.603Z,-2.66
2022-12-19T07:43:39.881Z,-2.70
2022-12-19T07:46:06.585Z,-2.79
2022-12-19T07:48:33.350Z,-2.83
2022-12-19T07:51:00.117Z,-2.52
2022-12-19T07:53:27.969Z,-2.42
2022-12-19T07:55:54.737Z,-2.49
2022-12-19T07:58:21.560Z,-2.41
2022-12-19T08:01:00.976Z,-2.34
2022-12-19T08:03:28.637Z,-2.45
2022-12-19T08:06:06.869Z,-2.29
2022-12-19T08:08:37.870Z,-2.28
2022-12-19T08:11:13.291Z,-2.33
2022-12-19T08:13:46.261Z,-2.07
2022-12-19T08:16:14.059Z,-2.23
2022-12-19T08:18:40.743Z,-2.19
2022-12-19T08:21:09.009Z,-2.16
2022-12-19T08:23:35.866Z,-2.16
2022-12-19T08:26:06.870Z,-2.14
2022-12-19T08:28:35.563Z,-2.12
2022-12-19T08:31:15.747Z,-2.11
2022-12-19T08:33:43.574Z,-2.09
2022-12-19T08:36:13.187Z,-2.05
2022-12-19T08:38:40.537Z,-2.03
2022-12-19T08:41:07.798Z,-2.07
2022-12-19T08:43:34.949Z,-1.96
2022-12-19T08:46:02.268Z,-1.96
2022-12-19T08:48:29.113Z,-1.98
2022-12-19T08:50:58.355Z,-1.87
2022-12-19T08:53:27.527Z,-1.79
2022-12-19T08:55:59.345Z,-1.73
2022-12-19T08:58:28.812Z,-1.67
2022-12-19T09:01:05.192Z,-1.61
2022-12-19T09:03:54.611Z,-1.58
2022-12-19T09:06:20.256Z,-1.53
2022-12-19T09:08:47.438Z,-1.47
2022-12-19T09:11:16.731Z,-1.49
2022-12-19T09:13:45.000Z,-1.39
2022-12-19T09:16:17.931Z,-1.35
2022-12-19T09:18:48.642Z,-1.32
2022-12-19T09:21:16.693Z,-1.28
2022-12-19T09:23:47.532Z,-1.24
2022-12-19T09:26:15.399Z,-1.19
2022-12-19T09:28:42.421Z,-1.13
2022-12-19T09:31:12.615Z,-1.11
2022-12-19T09:33:43.594Z,-1.02
2022-12-19T09:36:23.128Z,-0.99
2022-12-19T09:38:51.024Z,-0.91
2022-12-19T09:41:49.605Z,-0.86
2022-12-19T09:44:45.699Z,-0.78
2022-12-19T09:47:19.877Z,-0.75
2022-12-19T09:49:48.347Z,-0.69
2022-12-19T09:52:21.647Z,-0.63
2022-12-19T09:55:17.482Z,-0.58
2022-12-19T09:57:59.058Z,-0.55
2022-12-19T10:00:33.881Z,-0.48
2022-12-19T10:03:07.856Z,-0.50
2022-12-19T10:06:35.732Z,-0.38
2022-12-19T10:08:45.384Z,-0.38
2022-12-19T10:12:42.162Z,-0.31
2022-12-19T10:14:52.386Z,-0.26
2022-12-19T10:17:30.351Z,-0.23
2022-12-19T10:19:56.992Z,-0.17
2022-12-19T10:22:30.466Z,-0.15
2022-12-19T10:25:34.089Z,-0.11
2022-12-19T10:28:09.462Z,-0.03
2022-12-19T10:30:44.865Z,0.00
2022-12-19T10:33:29.985Z,0.07
2022-12-19T10:36:01.969Z,0.03
2022-12-19T10:38:36.055Z,0.15
2022-12-19T10:41:30.395Z,0.20
2022-12-19T10:44:07.318Z,0.24
2022-12-19T10:46:46.298Z,0.29
2022-12-19T10:49:18.718Z,0.30
2022-12-19T10:51:56.118Z,0.37
2022-12-19T10:54:27.585Z,0.40
2022-12-19T10:57:23.823Z,0.43
2022-12-19T11:00:16.251Z,0.45
2022-12-19T11:02:47.316Z,0.50
2022-12-19T11:08:49.192Z,0.52
2022-12-19T11:14:15.197Z,0.53
2022-12-19T11:19:21.789Z,0.66
2022-12-19T11:21:28.369Z,0.70
2022-12-19T11:29:36.396Z,0.75
2022-12-19T11:29:54.949Z,0.78
2022-12-19T11:30:09.321Z,0.77
2022-12-19T11:30:49.025Z,0.84
2022-12-19T11:34:28.873Z,0.89
2022-12-19T11:37:17.492Z,0.97
2022-12-19T11:39:58.387Z,1.00
2022-12-19T11:42:37.641Z,1.04
2022-12-19T11:45:35.131Z,1.11
2022-12-19T11:48:10.586Z,1.15
2022-12-19T11:50:55.771Z,1.19
2022-12-19T11:53:29.255Z,1.21
2022-12-19T11:56:03.642Z,1.24
2022-12-19T11:58:30.303Z,1.30
2022-12-19T12:01:06.072Z,1.36
2022-12-19T12:04:10.092Z,1.38
2022-12-19T12:06:57.594Z,1.42
2022-12-19T12:13:16.079Z,1.46
2022-12-19T12:21:55.167Z,1.47
2022-12-19T12:31:18.381Z,1.49
2022-12-19T12:31:26.255Z,1.46
2022-12-19T12:31:27.851Z,1.50
2022-12-19T12:31:44.955Z,1.55
2022-12-19T12:31:47.729Z,1.54
2022-12-19T12:35:43.566Z,1.59
2022-12-19T12:38:28.454Z,1.63
2022-12-19T12:41:18.858Z,1.61
2022-12-19T12:43:57.637Z,1.69
2022-12-19T12:46:28.657Z,1.65
2022-12-19T12:49:06.423Z,1.73
2022-12-19T12:51:34.857Z,1.67
2022-12-19T12:54:12.131Z,1.80
2022-12-19T12:56:40.251Z,1.82
2022-12-19T12:59:21.221Z,1.84
2022-12-19T13:01:55.665Z,1.86
2022-12-19T13:04:30.415Z,1.88
2022-12-19T13:07:28.915Z,1.86
2022-12-19T13:10:15.267Z,1.94
2022-12-19T13:13:14.514Z,1.94
2022-12-19T13:15:44.390Z,1.93
2022-12-19T13:18:31.366Z,1.86
2022-12-19T13:20:59.490Z,1.91
2022-12-19T13:23:29.208Z,1.93
2022-12-19T13:25:56.574Z,1.92
2022-12-19T13:28:23.195Z,1.94
2022-12-19T13:31:19.607Z,1.92
2022-12-19T13:33:55.954Z,1.90
2022-12-19T13:39:26.270Z,1.91
2022-12-19T13:40:12.187Z,1.88
2022-12-19T13:43:14.328Z,1.89
2022-12-19T13:45:54.908Z,1.90
2022-12-19T13:48:56.804Z,1.91
2022-12-19T13:51:23.507Z,1.86
2022-12-19T13:53:59.606Z,1.95
2022-12-19T13:56:30.974Z,1.96
2022-12-19T13:59:01.281Z,1.97
2022-12-19T14:01:33.561Z,1.95
2022-12-19T14:04:08.197Z,1.95
2022-12-19T14:06:44.689Z,1.97
2022-12-19T14:11:26.544Z,2.00
2022-12-19T14:14:00.504Z,2.02
2022-12-19T14:15:32.796Z,2.03
2022-12-19T14:18:29.984Z,2.05
2022-12-19T14:22:05.553Z,2.04
2022-12-19T14:23:42.938Z,2.03
2022-12-19T14:28:20.448Z,2.05
2022-12-19T14:29:12.339Z,2.01
2022-12-19T14:31:58.336Z,2.01
2022-12-19T14:36:08.487Z,2.01
2022-12-19T14:38:03.871Z,2.04
2022-12-19T14:40:29.139Z,2.03
2022-12-19T14:43:59.668Z,2.05
2022-12-19T14:53:08.509Z,2.06
2022-12-19T14:54:20.627Z,2.06
2022-12-19T14:54:30.697Z,2.06
2022-12-19T14:56:00.471Z,2.04
2022-12-19T14:58:54.513Z,2.06
2022-12-19T15:01:09.182Z,2.04
2022-12-19T15:04:33.836Z,2.04
2022-12-19T15:07:09.670Z,2.02
2022-12-19T15:11:02.372Z,1.91
2022-12-19T15:14:03.904Z,2.00
2022-12-19T15:15:54.736Z,1.98
2022-12-19T15:18:33.664Z,1.99
2022-12-19T15:21:05.658Z,1.93
2022-12-19T15:23:32.838Z,1.82
2022-12-19T15:26:11.343Z,1.93
2022-12-19T15:28:50.204Z,1.93
2022-12-19T15:31:33.073Z,1.91
2022-12-19T15:36:48.425Z,1.85
2022-12-19T15:39:15.600Z,1.84
2022-12-19T15:41:43.017Z,1.80
2022-12-19T15:44:24.678Z,1.75
2022-12-19T15:46:51.469Z,1.73
2022-12-19T15:49:20.456Z,1.74
2022-12-19T15:51:47.610Z,1.73
2022-12-19T15:54:47.279Z,1.74
2022-12-19T15:57:01.731Z,1.75
2022-12-19T15:59:38.152Z,1.68
2022-12-19T16:02:21.943Z,1.72
2022-12-19T16:04:50.730Z,1.66
2022-12-19T16:07:23.105Z,1.69
2022-12-19T16:09:50.310Z,1.60
2022-12-19T16:12:20.655Z,1.65
2022-12-19T16:14:54.625Z,1.56
2022-12-19T16:17:24.485Z,1.55
2022-12-19T16:19:51.707Z,1.61
2022-12-19T16:22:26.623Z,1.62
2022-12-19T16:24:54.279Z,1.55
2022-12-19T16:27:27.804Z,1.51
2022-12-19T16:29:55.634Z,1.47
2022-12-19T16:32:24.498Z,1.48
2022-12-19T16:34:52.943Z,1.46
2022-12-19T16:37:19.954Z,1.43
2022-12-19T16:39:46.694Z,1.38
2022-12-19T16:42:16.809Z,1.39
2022-12-19T16:44:48.013Z,1.37
2022-12-19T16:47:17.679Z,1.35
2022-12-19T16:49:44.989Z,1.20
2022-12-19T16:52:12.314Z,1.33
2022-12-19T16:54:39.709Z,1.35
2022-12-19T16:57:15.861Z,1.29
2022-12-19T16:59:42.596Z,1.31
2022-12-19T17:02:21.355Z,1.29
2022-12-19T17:04:53.794Z,1.19
2022-12-19T17:07:20.772Z,1.22
2022-12-19T17:09:47.420Z,1.19
2022-12-19T17:12:18.353Z,1.18
2022-12-19T17:14:45.281Z,1.13
2022-12-19T17:17:14.751Z,1.16
2022-12-19T17:19:45.346Z,1.09
2022-12-19T17:22:14.018Z,1.13
2022-12-19T17:24:40.882Z,1.09
2022-12-19T17:27:07.739Z,1.09
2022-12-19T17:29:34.410Z,0.99
2022-12-19T17:32:01.954Z,1.05
2022-12-19T17:34:32.117Z,1.00
2022-12-19T17:37:00.584Z,1.01
2022-12-19T17:39:29.611Z,1.01
2022-12-19T17:41:59.590Z,0.99
2022-12-19T17:44:26.724Z,0.93
2022-12-19T17:46:53.686Z,0.77
2022-12-19T17:49:31.595Z,1.01
2022-12-19T17:51:59.848Z,0.88
2022-12-19T17:54:27.425Z,0.69
2022-12-19T17:56:54.182Z,0.83
2022-12-19T17:59:21.154Z,0.88
2022-12-19T18:01:48.261Z,0.89
2022-12-19T18:04:18.618Z,0.91
2022-12-19T18:06:46.560Z,0.87
2022-12-19T18:09:24.807Z,0.82
2022-12-19T18:11:52.722Z,0.79
2022-12-19T18:14:20.543Z,0.76
2022-12-19T18:16:50.403Z,0.62
2022-12-19T18:19:24.715Z,0.82
2022-12-19T18:21:51.966Z,0.53
2022-12-19T18:24:18.737Z,0.69
2022-12-19T18:26:45.597Z,0.79
2022-12-19T18:29:12.841Z,0.68
2022-12-19T18:31:46.279Z,0.63
2022-12-19T18:34:24.297Z,0.75
2022-12-19T18:36:52.184Z,0.73
2022-12-19T18:39:24.256Z,0.77
2022-12-19T18:41:52.060Z,0.76
2022-12-19T18:44:19.166Z,0.78
2022-12-19T18:46:48.565Z,0.74
2022-12-19T18:49:16.997Z,0.79
2022-12-19T18:51:44.978Z,0.76
2022-12-19T18:54:21.947Z,0.78
2022-12-19T18:56:48.872Z,0.75
2022-12-19T18:59:15.684Z,0.70
2022-12-19T19:01:46.716Z,0.70
2022-12-19T19:04:18.257Z,0.72
2022-12-19T19:06:51.021Z,0.41
2022-12-19T19:09:20.193Z,0.73
2022-12-19T19:11:47.402Z,0.64
2022-12-19T19:14:14.662Z,0.62
2022-12-19T19:16:41.676Z,0.63
2022-12-19T19:19:14.287Z,0.60
2022-12-19T19:21:41.778Z,0.47
2022-12-19T19:24:17.116Z,0.62
2022-12-19T19:26:44.175Z,0.64
2022-12-19T19:29:13.576Z,0.61
2022-12-19T19:31:44.726Z,0.55
2022-12-19T19:34:22.999Z,0.47
2022-12-19T19:36:54.899Z,0.28
2022-12-19T19:39:23.056Z,0.42
2022-12-19T19:41:50.134Z,0.44
2022-12-19T19:44:17.110Z,0.55
2022-12-19T19:46:43.876Z,0.50
2022-12-19T19:49:10.722Z,0.46
2022-12-19T19:51:37.515Z,0.51
2022-12-19T19:54:04.817Z,0.57
2022-12-19T19:56:32.544Z,0.54
2022-12-19T19:59:00.856Z,0.52
2022-12-19T20:01:28.013Z,0.53
2022-12-19T20:03:54.948Z,0.42
2022-12-19T20:06:22.129Z,0.23
2022-12-19T20:08:49.673Z,0.44
2022-12-19T20:11:17.512Z,0.38
2022-12-19T20:13:44.346Z,0.10
2022-12-19T20:16:16.145Z,0.36
2022-12-19T20:18:48.032Z,0.25
2022-12-19T20:21:15.235Z,0.32
2022-12-19T20:23:43.474Z,0.44
2022-12-19T20:26:12.435Z,0.28
2022-12-19T20:28:47.830Z,0.31
2022-12-19T20:31:17.757Z,0.28
2022-12-19T20:33:46.397Z,-0.02
2022-12-19T20:36:13.932Z,0.27
2022-12-19T20:38:40.850Z,0.26
2022-12-19T20:41:08.194Z,-0.12
2022-12-19T20:43:37.524Z,0.22
2022-12-19T20:46:07.827Z,0.23
2022-12-19T20:48:34.977Z,0.18
2022-12-19T20:51:02.608Z,0.27
2022-12-19T20:53:29.473Z,0.25
2022-12-19T20:56:00.004Z,0.27
2022-12-19T20:58:28.659Z,0.23
2022-12-19T21:00:56.867Z,0.01
2022-12-19T21:03:29.329Z,0.25
2022-12-19T21:05:57.044Z,0.21
2022-12-19T21:08:25.621Z,0.24
2022-12-19T21:10:54.318Z,0.24
2022-12-19T21:13:22.890Z,0.15
2022-12-19T21:15:58.874Z,0.15
2022-12-19T21:18:26.570Z,0.13
2022-12-19T21:20:53.750Z,0.10
2022-12-19T21:23:20.967Z,0.06
2022-12-19T21:25:48.098Z,0.03
2022-12-19T21:28:15.413Z,0.09
2022-12-19T21:30:42.289Z,-0.02
2022-12-19T21:33:09.877Z,0.00
2022-12-19T21:35:38.036Z,-0.01
2022-12-19T21:38:04.844Z,0.10
2022-12-19T21:40:31.539Z,-0.03
2022-12-19T21:42:58.568Z,0.11
2022-12-19T21:45:25.507Z,0.04
2022-12-19T21:47:52.253Z,-0.19
2022-12-19T21:50:19.002Z,0.12
2022-12-19T21:52:46.752Z,0.18
2022-12-19T21:55:15.952Z,0.05
2022-12-19T21:57:42.734Z,0.08
2022-12-19T22:00:12.231Z,0.08
2022-12-19T22:02:43.580Z,0.10
2022-12-19T22:05:17.571Z,-0.06
2022-12-19T22:07:44.381Z,0.08
2022-12-19T22:10:11.395Z,0.07
2022-12-19T22:12:38.190Z,0.15
2022-12-19T22:15:05.300Z,0.02
2022-12-19T22:17:32.014Z,0.22
2022-12-19T22:19:58.730Z,0.10
2022-12-19T22:22:25.423Z,0.16
2022-12-19T22:24:52.177Z,-0.17
2022-12-19T22:27:19.754Z,0.17
2022-12-19T22:29:46.556Z,0.11
2022-12-19T22:32:13.564Z,0.10
2022-12-19T22:34:40.298Z,0.16
2022-12-19T22:37:07.043Z,0.16
2022-12-19T22:39:34.072Z,0.13
2022-12-19T22:42:01.002Z,0.19
2022-12-19T22:44:28.249Z,0.13
2022-12-19T22:46:55.389Z,0.14
2022-12-19T22:49:22.177Z,0.21
2022-12-19T22:51:49.520Z,0.14
2022-12-19T22:54:16.347Z,0.16
2022-12-19T22:56:43.272Z,0.24
2022-12-19T22:59:12.026Z,0.28
2022-12-19T23:01:41.663Z,0.24
2022-12-19T23:04:11.572Z,0.30
2022-12-19T23:06:39.241Z,0.35
2022-12-19T23:09:08.525Z,0.26
2022-12-19T23:11:38.892Z,0.33
2022-12-19T23:14:08.120Z,0.39
2022-12-19T23:16:35.335Z,0.41
2022-12-19T23:19:02.789Z,0.43
2022-12-19T23:21:29.801Z,0.42
2022-12-19T23:23:56.991Z,0.39
2022-12-19T23:26:29.743Z,0.43
2022-12-19T23:29:02.292Z,0.30
2022-12-19T23:31:30.037Z,0.40
2022-12-19T23:33:57.934Z,0.34
2022-12-19T23:37:00.349Z,0.46
2022-12-19T23:39:12.859Z,0.46
2022-12-19T23:41:40.362Z,0.43
2022-12-19T23:44:08.746Z,0.42
2022-12-19T23:46:35.988Z,0.42
2022-12-19T23:49:03.273Z,0.48
2022-12-19T23:51:30.543Z,0.46
2022-12-19T23:53:57.798Z,0.43
2022-12-19T23:56:27.692Z,0.45
2022-12-19T23:58:55.274Z,0.45
